Terminal Aerodrome Forecast
Issued by NWS

Home | Current Version | Previous Version | Text Only | Print | Product List | Glossary On
Versions: 1 2 3 4 5 6 7 8 9 10 11 12 13 14 15
000
FTUS43 KDVN 241540 AAA
TAFCID
TAF AMD
KCID 241540Z 2416/2512 26009KT P6SM BKN015
     FM241800 28009KT P6SM SCT025
     FM242100 30010KT P6SM SCT250
     FM250000 31005KT P6SM SCT250=

USA.gov is the U.S. government's official web portal to all federal, state and local government web resources and services.